Terminal Aerodrome Forecast
Issued by NWS Bismarck, ND

Home | Current Version | Previous Version | Text Only | Print | Product List | Glossary On
Versions: 1 2 3 4 5 6 7 8 9 10 11 12 13 14 15 16 17 18 19 20
000
FTUS43 KBIS 210912 AAD
TAFISN
TAF AMD
KISN 210912Z 2109/2206 29011KT P6SM SKC
     FM211100 30011KT P6SM FEW015 SCT025
     FM211600 29008KT P6SM FEW300
     FM212000 25005KT P6SM SCT300
     FM220000 17005KT P6SM SCT250=

USA.gov is the U.S. government's official web portal to all federal, state and local government web resources and services.